Time;durP1;ratioP1;P1;durP2;ratioP2;P2;SDS_P1;SDS_P2;PMS_P1;PMS_P2;Temp;Humidity;BMP_temperature;BMP_pressure;BME280_temperature;BME280_humidity;BME280_pressure;Samples;Min_cycle;Max_cycle;Signal;HPM_P1;HPM_P2
2022/07/24 00:00:26;;;;;;;19.65;11.68;;;21.70;79.50;;;;;;5097137;28;20521;-84
2022/07/24 00:02:51;;;;;;;20.92;12.45;;;21.70;79.90;;;;;;5094271;28;20039;-85
2022/07/24 00:05:17;;;;;;;20.70;13.30;;;21.70;79.80;;;;;;5093037;28;20548;-84
2022/07/24 00:07:43;;;;;;;22.65;13.32;;;21.70;80.10;;;;;;5075012;28;20461;-85
2022/07/24 00:10:10;;;;;;;22.08;13.65;;;21.60;80.30;;;;;;5093709;28;20016;-85
2022/07/24 00:12:37;;;;;;;25.58;12.98;;;21.70;80.40;;;;;;5075093;28;20052;-83
2022/07/24 00:15:04;;;;;;;22.50;12.83;;;21.60;80.40;;;;;;5095516;28;20079;-89
2022/07/24 00:17:30;;;;;;;26.75;12.90;;;21.60;80.70;;;;;;5080337;28;20076;-85
2022/07/24 00:19:59;;;;;;;;;;;21.60;80.80;;;;;;5095910;28;20104;-80
2022/07/24 00:22:24;;;;;;;24.13;13.90;;;21.50;80.00;;;;;;5090588;28;20270;-83
2022/07/24 00:24:50;;;;;;;24.75;12.70;;;21.50;81.00;;;;;;5097923;28;20036;-84
2022/07/24 00:27:17;;;;;;;19.55;12.82;;;21.40;81.40;;;;;;5100135;28;20032;-84
2022/07/24 00:29:42;;;;;;;25.88;14.10;;;21.40;81.70;;;;;;5101831;28;20020;-84
2022/07/24 00:32:08;;;;;;;21.63;13.60;;;21.40;81.70;;;;;;5083622;28;20016;-82
2022/07/24 00:34:34;;;;;;;27.55;14.05;;;21.40;81.90;;;;;;5066603;28;20445;-81
2022/07/24 00:37:00;;;;;;;22.25;16.45;;;21.40;82.00;;;;;;5091022;28;20031;-83
2022/07/24 00:39:26;;;;;;;30.02;14.30;;;21.40;82.20;;;;;;5087818;28;20501;-83
2022/07/24 00:41:52;;;;;;;26.90;14.32;;;21.40;82.30;;;;;;5084835;28;20021;-86
2022/07/24 00:44:19;;;;;;;27.65;14.10;;;21.30;82.40;;;;;;5092021;28;20032;-83
2022/07/24 00:46:46;;;;;;;28.77;13.95;;;21.30;82.50;;;;;;5092317;28;20023;-82
2022/07/24 00:49:15;;;;;;;29.30;14.70;;;21.30;82.50;;;;;;5091354;28;20111;-82
2022/07/24 00:51:43;;;;;;;24.17;14.98;;;21.30;82.70;;;;;;5091773;28;20084;-82
2022/07/24 00:54:11;;;;;;;24.63;14.30;;;21.20;82.80;;;;;;5091126;28;20032;-82
2022/07/24 00:56:38;;;;;;;20.48;14.07;;;21.20;82.90;;;;;;5091513;28;20085;-82
2022/07/24 00:59:04;;;;;;;29.80;14.70;;;21.20;83.00;;;;;;5073234;28;20035;-83
2022/07/24 01:01:31;;;;;;;18.55;14.80;;;21.20;83.10;;;;;;5080127;28;20016;-82
2022/07/24 01:03:58;;;;;;;24.50;14.10;;;21.20;83.30;;;;;;5091776;28;20052;-83
2022/07/24 01:06:24;;;;;;;19.02;12.93;;;21.20;83.40;;;;;;5091921;28;20031;-83
2022/07/24 01:08:50;;;;;;;23.48;14.07;;;21.10;83.50;;;;;;5082052;28;20020;-82
2022/07/24 01:11:16;;;;;;;18.85;13.88;;;21.10;83.50;;;;;;5079390;28;20150;-83
2022/07/24 01:13:42;;;;;;;24.20;13.88;;;21.10;83.50;;;;;;5091700;28;20147;-84
2022/07/24 01:16:09;;;;;;;23.38;13.13;;;21.10;83.60;;;;;;5073602;28;20361;-85
2022/07/24 01:18:36;;;;;;;20.75;13.48;;;21.10;83.50;;;;;;5077553;28;20028;-82
2022/07/24 01:21:04;;;;;;;21.38;13.77;;;21.20;83.40;;;;;;5082457;28;20443;-83
2022/07/24 01:23:30;;;;;;;22.08;13.43;;;21.20;83.20;;;;;;5098092;28;20025;-83
2022/07/24 01:25:56;;;;;;;17.52;13.32;;;21.20;83.10;;;;;;5091471;28;20035;-83
2022/07/24 01:28:21;;;;;;;23.20;12.38;;;21.20;82.90;;;;;;5091716;28;20047;-83
2022/07/24 01:30:47;;;;;;;21.30;13.05;;;21.30;82.70;;;;;;5085590;28;20032;-82
2022/07/24 01:33:13;;;;;;;26.17;11.77;;;21.30;82.50;;;;;;5091400;28;20106;-83
2022/07/24 01:35:40;;;;;;;17.60;11.25;;;21.30;82.10;;;;;;5091115;28;20020;-83
2022/07/24 01:38:07;;;;;;;17.42;11.95;;;21.40;81.90;;;;;;5091510;28;20082;-84
2022/07/24 01:40:33;;;;;;;18.48;11.95;;;21.40;81.70;;;;;;5077828;28;20036;-83
2022/07/24 01:42:59;;;;;;;15.27;10.88;;;21.50;81.50;;;;;;5084718;28;20051;-82
2022/07/24 01:45:24;;;;;;;18.83;11.40;;;21.50;81.30;;;;;;5085568;28;20086;-83
2022/07/24 01:47:50;;;;;;;15.32;11.80;;;21.50;81.10;;;;;;5091638;28;20012;-82
2022/07/24 01:50:16;;;;;;;18.92;12.75;;;21.50;81.10;;;;;;5091184;28;20085;-84
2022/07/24 01:52:42;;;;;;;17.92;11.35;;;21.50;81.00;;;;;;5093125;28;20474;-84
2022/07/24 01:55:09;;;;;;;16.23;10.70;;;21.50;81.00;;;;;;5077220;28;20032;-83
2022/07/24 01:57:35;;;;;;;19.08;12.55;;;21.50;81.10;;;;;;5086535;28;20016;-83
2022/07/24 02:00:02;;;;;;;16.45;10.70;;;21.50;81.00;;;;;;5089012;28;20151;-83
2022/07/24 02:02:27;;;;;;;17.90;11.77;;;21.50;81.10;;;;;;5069691;28;20742;-83
2022/07/24 02:04:54;;;;;;;18.13;11.73;;;21.40;81.10;;;;;;5115219;28;20039;-82
2022/07/24 02:07:23;;;;;;;18.83;11.88;;;21.40;81.10;;;;;;5108996;28;20055;-83
2022/07/24 02:09:49;;;;;;;15.73;11.65;;;21.40;81.30;;;;;;5088312;28;20050;-85
2022/07/24 02:12:15;;;;;;;16.58;11.20;;;21.40;81.40;;;;;;5088541;28;20064;-84
2022/07/24 02:14:41;;;;;;;12.70;10.32;;;21.30;81.50;;;;;;5095479;28;20036;-83
2022/07/24 02:17:07;;;;;;;16.95;11.73;;;21.30;81.70;;;;;;5092502;28;20024;-84
2022/07/24 02:19:33;;;;;;;18.10;10.88;;;21.30;82.00;;;;;;5088930;28;20051;-83
2022/07/24 02:21:58;;;;;;;19.35;10.85;;;21.30;82.10;;;;;;5094416;28;20016;-84
2022/07/24 02:24:24;;;;;;;14.35;11.07;;;21.30;82.10;;;;;;5094926;28;20032;-85
2022/07/24 02:26:50;;;;;;;14.40;10.60;;;21.30;82.20;;;;;;5086436;28;20012;-85
2022/07/24 02:29:17;;;;;;;15.95;11.15;;;21.30;82.30;;;;;;5080974;28;20154;-84
2022/07/24 02:31:42;;;;;;;16.15;10.35;;;21.30;82.40;;;;;;5095626;28;20028;-83
2022/07/24 02:34:08;;;;;;;18.38;9.90;;;21.40;82.50;;;;;;5100367;28;20031;-83
2022/07/24 02:36:34;;;;;;;18.13;12.00;;;21.40;82.10;;;;;;5076693;28;20394;-85
2022/07/24 02:39:00;;;;;;;17.52;11.52;;;21.40;81.80;;;;;;5093363;28;20024;-84
2022/07/24 02:41:26;;;;;;;12.65;10.82;;;21.40;81.60;;;;;;5093904;28;20208;-84
2022/07/24 02:43:51;;;;;;;16.02;10.23;;;21.50;81.60;;;;;;5093455;28;20035;-84
2022/07/24 02:46:17;;;;;;;13.68;9.55;;;21.50;81.60;;;;;;5093750;28;20024;-84
2022/07/24 02:48:43;;;;;;;15.50;10.38;;;21.50;81.50;;;;;;5094336;28;20107;-82
2022/07/24 02:51:10;;;;;;;19.20;11.23;;;21.50;81.30;;;;;;5093418;28;20027;-82
2022/07/24 02:53:36;;;;;;;13.23;10.52;;;21.50;81.10;;;;;;5075440;28;20056;-82
2022/07/24 02:56:02;;;;;;;16.63;11.05;;;21.60;81.20;;;;;;5073329;28;20062;-83
2022/07/24 02:58:27;;;;;;;14.32;11.02;;;21.70;80.80;;;;;;5085876;28;20016;-83
2022/07/24 03:00:53;;;;;;;14.23;10.27;;;21.90;80.60;;;;;;5095021;28;20024;-82
2022/07/24 03:03:19;;;;;;;14.93;9.57;;;22.00;80.20;;;;;;5076596;28;20081;-83
2022/07/24 03:05:45;;;;;;;12.88;9.43;;;22.10;79.60;;;;;;5084982;28;20114;-84
2022/07/24 03:08:11;;;;;;;13.65;9.65;;;22.30;79.30;;;;;;5085249;28;20120;-84
2022/07/24 03:10:37;;;;;;;16.05;10.38;;;22.40;78.90;;;;;;5093472;28;20071;-84
2022/07/24 03:13:02;;;;;;;20.38;10.65;;;22.40;78.60;;;;;;5093452;28;20052;-83
2022/07/24 03:15:28;;;;;;;14.30;9.60;;;22.40;78.50;;;;;;5093431;28;20107;-83
2022/07/24 03:17:56;;;;;;;15.05;10.15;;;22.50;78.20;;;;;;5074976;28;20020;-83
2022/07/24 03:20:23;;;;;;;12.85;8.77;;;22.60;78.10;;;;;;5092575;28;20404;-83
2022/07/24 03:22:49;;;;;;;;;;;22.60;77.50;;;;;;5093266;28;20473;-83
2022/07/24 03:25:15;;;;;;;21.50;9.85;;;22.70;77.50;;;;;;5088320;28;19966;-84
2022/07/24 03:27:41;;;;;;;13.05;8.75;;;22.70;77.20;;;;;;5074513;28;20035;-84
2022/07/24 03:30:08;;;;;;;12.15;8.38;;;22.80;76.80;;;;;;5092488;28;20024;-84
2022/07/24 03:32:34;;;;;;;15.32;9.27;;;22.80;76.60;;;;;;5091798;28;20469;-84
2022/07/24 03:35:00;;;;;;;13.77;9.45;;;22.90;76.50;;;;;;5092144;28;20036;-84
2022/07/24 03:37:26;;;;;;;9.70;8.73;;;23.00;76.20;;;;;;5092819;28;20047;-85
2022/07/24 03:39:52;;;;;;;14.52;9.30;;;23.00;76.00;;;;;;5083400;28;20059;-84
2022/07/24 03:42:17;;;;;;;12.02;8.23;;;23.20;75.70;;;;;;5069464;28;20058;-84
2022/07/24 03:44:43;;;;;;;16.05;9.02;;;23.20;75.40;;;;;;5074040;28;20081;-83
2022/07/24 03:47:09;;;;;;;10.38;7.35;;;23.20;75.20;;;;;;5091469;28;20095;-83
2022/07/24 03:49:35;;;;;;;15.23;8.43;;;23.20;75.10;;;;;;5073804;28;20023;-83
2022/07/24 03:52:02;;;;;;;10.23;8.10;;;23.20;75.30;;;;;;5077517;28;20113;-82
2022/07/24 03:54:28;;;;;;;11.50;7.47;;;23.30;75.00;;;;;;5092049;28;20032;-83
2022/07/24 03:56:54;;;;;;;9.07;8.18;;;23.40;74.40;;;;;;5074288;28;20025;-83
2022/07/24 03:59:19;;;;;;;10.32;7.25;;;23.60;74.00;;;;;;5081821;28;20020;-83
2022/07/24 04:01:45;;;;;;;8.80;7.88;;;23.60;73.50;;;;;;5084841;28;20469;-82
2022/07/24 04:04:11;;;;;;;9.35;7.53;;;23.70;73.10;;;;;;5073434;28;20020;-83
2022/07/24 04:06:37;;;;;;;11.48;8.82;;;23.80;72.70;;;;;;5074425;28;20035;-82
2022/07/24 04:09:04;;;;;;;11.07;7.72;;;23.90;72.40;;;;;;5083119;28;20133;-82
2022/07/24 04:11:30;;;;;;;;;;;24.00;72.70;;;;;;5092610;28;20027;-83
2022/07/24 04:13:56;;;;;;;13.88;8.93;;;24.00;72.70;;;;;;5092334;28;19916;-83
2022/07/24 04:16:22;;;;;;;11.65;8.00;;;24.00;72.40;;;;;;5090539;28;20020;-82
2022/07/24 04:18:48;;;;;;;9.23;7.68;;;24.00;71.90;;;;;;5079225;28;20043;-84
2022/07/24 04:21:14;;;;;;;14.40;7.63;;;24.10;72.00;;;;;;5092114;28;20089;-83
2022/07/24 04:23:40;;;;;;;11.82;7.68;;;24.10;71.20;;;;;;5092015;28;20159;-83
2022/07/24 04:26:06;;;;;;;11.75;7.97;;;24.20;72.20;;;;;;5068639;28;20450;-82
2022/07/24 04:28:32;;;;;;;10.57;8.50;;;24.30;71.80;;;;;;5074163;28;20027;-82
2022/07/24 04:30:58;;;;;;;13.43;12.05;;;24.30;71.50;;;;;;5092341;28;20055;-82
2022/07/24 04:33:24;;;;;;;13.35;7.95;;;24.40;71.40;;;;;;5086271;28;20451;-83
2022/07/24 04:35:50;;;;;;;13.48;7.95;;;24.60;71.00;;;;;;5090629;28;20050;-82
2022/07/24 04:38:15;;;;;;;17.45;7.85;;;24.60;70.60;;;;;;5098905;28;20025;-83
2022/07/24 04:40:42;;;;;;;12.13;7.38;;;24.60;70.40;;;;;;5067689;28;20054;-83
2022/07/24 04:43:08;;;;;;;14.90;7.97;;;24.70;70.30;;;;;;5081600;28;20088;-84
2022/07/24 04:45:34;;;;;;;10.48;7.88;;;24.80;70.10;;;;;;5078832;28;20032;-83
2022/07/24 04:48:00;;;;;;;15.30;7.35;;;24.80;69.50;;;;;;5091949;28;20054;-83
2022/07/24 04:50:25;;;;;;;11.07;7.63;;;24.90;69.60;;;;;;5079537;28;20032;-84
2022/07/24 04:52:51;;;;;;;10.73;7.20;;;24.90;69.00;;;;;;5091843;28;20016;-84
2022/07/24 04:55:17;;;;;;;9.25;6.35;;;25.00;69.40;;;;;;5093476;28;20024;-83
2022/07/24 04:57:43;;;;;;;14.75;7.15;;;25.10;68.60;;;;;;5093888;28;20028;-84
2022/07/24 05:00:12;;;;;;;15.73;6.32;;;25.30;68.30;;;;;;5081063;28;20046;-84
2022/07/24 05:02:37;;;;;;;10.80;7.10;;;25.40;68.10;;;;;;5079672;28;20020;-83
2022/07/24 05:05:04;;;;;;;10.60;6.28;;;25.40;67.90;;;;;;5091380;28;20100;-83
2022/07/24 05:07:30;;;;;;;11.15;6.65;;;25.50;67.50;;;;;;5091964;28;20027;-84
2022/07/24 05:09:57;;;;;;;10.15;5.80;;;25.80;66.40;;;;;;5082445;28;20028;-84
2022/07/24 05:12:24;;;;;;;10.05;6.00;;;26.00;65.60;;;;;;5092135;28;20132;-83
2022/07/24 05:14:50;;;;;;;7.80;5.55;;;26.20;65.10;;;;;;5092646;28;20055;-85
2022/07/24 05:17:15;;;;;;;9.82;4.90;;;26.70;63.80;;;;;;5065511;28;20068;-84
2022/07/24 05:19:41;;;;;;;6.65;5.28;;;27.80;61.40;;;;;;5090621;28;20103;-83
2022/07/24 05:22:08;;;;;;;10.07;5.03;;;;;;;;;;5078421;28;20016;-83
2022/07/24 05:24:33;;;;;;;6.47;4.47;;;29.10;58.50;;;;;;5092308;28;20107;-84
2022/07/24 05:26:59;;;;;;;6.40;3.97;;;30.90;53.60;;;;;;5093135;28;20095;-82
2022/07/24 05:29:25;;;;;;;6.97;4.13;;;31.80;52.30;;;;;;5084107;28;20103;-83
2022/07/24 05:31:54;;;;;;;6.40;3.97;;;32.20;50.20;;;;;;5092396;28;20439;-83
2022/07/24 05:34:23;;;;;;;6.75;4.00;;;;;;;;;;5092760;28;20506;-82
2022/07/24 05:36:49;;;;;;;6.47;3.78;;;32.90;48.80;;;;;;5095231;28;20021;-83
2022/07/24 05:39:15;;;;;;;11.50;4.28;;;34.30;46.50;;;;;;5094609;28;20053;-83
2022/07/24 05:41:41;;;;;;;8.00;4.47;;;34.90;45.30;;;;;;5096237;28;20365;-85
2022/07/24 05:44:07;;;;;;;4.63;3.80;;;35.60;44.70;;;;;;5094896;28;20088;-84
2022/07/24 05:46:33;;;;;;;9.63;4.00;;;36.10;43.50;;;;;;5087060;28;20032;-83
2022/07/24 05:48:59;;;;;;;9.80;3.80;;;36.50;43.20;;;;;;5091910;28;20495;-83
2022/07/24 05:51:25;;;;;;;4.78;3.65;;;36.90;42.40;;;;;;5092640;28;20366;-83
2022/07/24 05:53:51;;;;;;;6.80;3.60;;;37.20;41.90;;;;;;5068704;28;20028;-83
2022/07/24 05:56:17;;;;;;;4.63;3.13;;;37.40;40.70;;;;;;5094264;28;20028;-84
2022/07/24 05:58:43;;;;;;;6.78;3.38;;;37.50;40.20;;;;;;5076172;28;20098;-84
2022/07/24 06:01:09;;;;;;;4.55;3.75;;;37.70;39.20;;;;;;5095365;28;20024;-84
2022/07/24 06:03:36;;;;;;;6.13;5.57;;;38.10;39.00;;;;;;5096125;28;20448;-84
2022/07/24 06:06:05;;;;;;;7.32;4.22;;;39.30;38.30;;;;;;5095574;28;20032;-83
2022/07/24 06:08:31;;;;;;;3.25;2.70;;;39.40;37.60;;;;;;5084817;28;20120;-84
2022/07/24 06:10:56;;;;;;;6.30;2.90;;;40.00;36.90;;;;;;5066263;28;20258;-83
2022/07/24 06:13:22;;;;;;;5.40;3.08;;;41.70;37.00;;;;;;5089653;28;20049;-83
2022/07/24 06:15:48;;;;;;;7.45;3.20;;;41.90;35.60;;;;;;5078946;28;20037;-84
2022/07/24 06:18:14;;;;;;;5.88;2.65;;;43.00;35.10;;;;;;5085658;28;20021;-84
2022/07/24 06:20:40;;;;;;;3.88;2.35;;;43.00;33.70;;;;;;5095240;28;20498;-84
2022/07/24 06:23:06;;;;;;;4.75;2.90;;;42.60;33.30;;;;;;5094642;28;20020;-83
2022/07/24 06:25:32;;;;;;;4.00;2.40;;;42.70;33.40;;;;;;5096564;28;20029;-84
2022/07/24 06:27:58;;;;;;;3.42;2.72;;;42.90;33.20;;;;;;5107146;28;20080;-83
2022/07/24 06:30:25;;;;;;;7.25;2.65;;;;;;;;;;5084736;28;20036;-84
2022/07/24 06:32:54;;;;;;;3.67;3.38;;;43.90;33.60;;;;;;5109208;28;20025;-85
2022/07/24 06:35:20;;;;;;;3.53;2.70;;;44.80;31.60;;;;;;5094089;28;20052;-85
2022/07/24 06:37:46;;;;;;;;;;;45.50;30.70;;;;;;5092619;28;20020;-84
2022/07/24 06:40:12;;;;;;;5.13;3.20;;;45.80;32.50;;;;;;5082336;28;19905;-83
2022/07/24 06:42:38;;;;;;;4.60;2.75;;;46.10;30.70;;;;;;5079745;28;20028;-83
2022/07/24 06:45:04;;;;;;;;;;;45.50;30.20;;;;;;5094322;28;20402;-83
2022/07/24 06:47:30;;;;;;;5.70;2.30;;;44.60;31.90;;;;;;5093912;28;19914;-85
2022/07/24 06:49:56;;;;;;;;;;;44.50;31.50;;;;;;5094387;28;20020;-85
2022/07/24 06:52:22;;;;;;;7.60;2.60;;;44.90;32.60;;;;;;5093987;28;19932;-84
2022/07/24 06:54:48;;;;;;;6.00;3.35;;;45.30;30.80;;;;;;5093943;28;20032;-84
2022/07/24 06:57:15;;;;;;;5.70;2.85;;;45.70;31.20;;;;;;5083143;28;20469;-82
2022/07/24 06:59:41;;;;;;;5.25;2.75;;;45.50;29.90;;;;;;5093314;28;20026;-83
2022/07/24 07:02:10;;;;;;;4.80;2.50;;;44.00;29.80;;;;;;5092459;28;20021;-82
2022/07/24 07:04:35;;;;;;;5.22;2.97;;;42.40;30.70;;;;;;5089697;28;20556;-83
2022/07/24 07:07:02;;;;;;;5.60;2.90;;;41.80;32.30;;;;;;5087237;28;20055;-82
2022/07/24 07:09:28;;;;;;;6.07;3.05;;;41.40;32.50;;;;;;5079646;28;20055;-84
2022/07/24 07:11:54;;;;;;;3.67;2.88;;;40.30;33.10;;;;;;5075057;28;20103;-84
2022/07/24 07:14:20;;;;;;;5.55;3.20;;;39.80;34.20;;;;;;5092335;28;20107;-84
2022/07/24 07:16:46;;;;;;;4.72;2.60;;;40.10;34.60;;;;;;5092346;28;20020;-83
2022/07/24 07:19:12;;;;;;;;;;;40.70;33.50;;;;;;5092394;28;20560;-84
2022/07/24 07:21:38;;;;;;;7.22;3.35;;;40.90;34.30;;;;;;5092128;28;20007;-83
2022/07/24 07:24:07;;;;;;;9.45;2.80;;;42.40;32.90;;;;;;5092255;28;20023;-82
2022/07/24 07:26:32;;;;;;;7.10;2.80;;;43.60;31.70;;;;;;5086347;28;20051;-82
2022/07/24 07:28:58;;;;;;;;;;;44.40;31.20;;;;;;5088238;28;20028;-83
2022/07/24 07:31:26;;;;;;;7.80;2.95;;;44.40;31.30;;;;;;5088259;28;19927;-83
2022/07/24 07:33:52;;;;;;;7.28;3.05;;;44.00;30.70;;;;;;5088297;28;20024;-83
2022/07/24 07:36:18;;;;;;;3.28;2.70;;;44.10;30.50;;;;;;5091891;28;20024;-82
2022/07/24 07:38:44;;;;;;;5.30;2.65;;;44.80;30.20;;;;;;5074435;28;20043;-82
2022/07/24 07:41:10;;;;;;;4.97;3.03;;;45.70;29.90;;;;;;5073629;28;20017;-83
2022/07/24 07:43:36;;;;;;;5.22;2.22;;;47.00;28.90;;;;;;5080987;28;20028;-81
2022/07/24 07:46:02;;;;;;;3.03;2.47;;;47.00;29.00;;;;;;5091661;28;20146;-83
2022/07/24 07:48:30;;;;;;;4.63;2.42;;;46.90;28.40;;;;;;5093544;28;20059;-82
2022/07/24 07:50:56;;;;;;;2.17;1.98;;;47.00;29.00;;;;;;5074018;28;20111;-83
2022/07/24 07:53:21;;;;;;;2.45;2.10;;;47.00;28.20;;;;;;5094742;28;20089;-82
2022/07/24 07:55:51;;;;;;;2.55;2.30;;;46.40;28.40;;;;;;5091785;28;20020;-84
2022/07/24 07:58:22;;;;;;;4.13;2.53;;;46.60;29.00;;;;;;5092325;28;20031;-83
2022/07/24 08:00:48;;;;;;;3.08;2.60;;;46.90;28.80;;;;;;5079541;28;20024;-81
2022/07/24 08:03:14;;;;;;;3.25;2.10;;;46.90;28.80;;;;;;5087003;28;20067;-82
2022/07/24 08:05:40;;;;;;;2.78;2.03;;;46.60;29.30;;;;;;5080866;28;20021;-82
2022/07/24 08:08:06;;;;;;;3.22;2.92;;;47.10;29.00;;;;;;5093194;28;20480;-82
2022/07/24 08:10:32;;;;;;;3.38;2.22;;;48.00;28.50;;;;;;5083078;28;20021;-82
2022/07/24 08:12:58;;;;;;;3.30;2.20;;;48.60;28.00;;;;;;5092551;28;20071;-81
2022/07/24 08:15:24;;;;;;;4.70;2.20;;;48.50;27.90;;;;;;5102272;28;20032;-83
2022/07/24 08:17:54;;;;;;;4.93;2.15;;;48.40;27.60;;;;;;5085137;28;20008;-82
2022/07/24 08:20:20;;;;;;;2.83;2.33;;;48.20;27.80;;;;;;5095291;28;20373;-82
2022/07/24 08:22:47;;;;;;;2.97;2.63;;;48.60;27.80;;;;;;5104444;28;20016;-81
2022/07/24 08:25:13;;;;;;;4.05;2.30;;;48.60;27.90;;;;;;5093550;28;20024;-81
2022/07/24 08:27:39;;;;;;;3.35;2.42;;;48.40;27.90;;;;;;5070606;28;20022;-82
2022/07/24 08:30:06;;;;;;;3.42;2.15;;;47.80;28.10;;;;;;5083656;28;20023;-82
2022/07/24 08:32:32;;;;;;;8.77;2.47;;;47.30;28.50;;;;;;5091635;28;20372;-83
2022/07/24 08:34:57;;;;;;;4.88;2.67;;;47.40;28.60;;;;;;5073045;28;20031;-82
2022/07/24 08:37:36;;;;;;;4.60;2.65;;;47.80;28.40;;;;;;5092319;28;20666;-82
2022/07/24 08:40:02;;;;;;;5.28;2.65;;;47.80;28.60;;;;;;5092213;28;20024;-82
2022/07/24 08:42:29;;;;;;;2.58;2.38;;;48.40;28.20;;;;;;5091834;28;20028;-82
2022/07/24 08:44:55;;;;;;;3.97;2.58;;;48.20;27.90;;;;;;5091700;28;20016;-82
2022/07/24 08:47:22;;;;;;;3.15;2.42;;;48.10;27.80;;;;;;5090625;28;20083;-82
2022/07/24 08:49:53;;;;;;;3.50;2.30;;;48.40;27.70;;;;;;5080854;28;20055;-82
2022/07/24 08:52:24;;;;;;;3.92;2.63;;;48.60;27.60;;;;;;5091912;28;20063;-82
2022/07/24 08:54:50;;;;;;;4.40;2.88;;;48.00;27.80;;;;;;5073266;28;20060;-82
2022/07/24 08:57:15;;;;;;;4.30;2.75;;;48.20;28.00;;;;;;5072208;28;20093;-82
2022/07/24 08:59:42;;;;;;;2.80;2.47;;;49.00;27.50;;;;;;5088178;28;20025;-82
2022/07/24 09:02:08;;;;;;;3.05;2.20;;;49.00;27.70;;;;;;5088206;28;20103;-81
2022/07/24 09:04:40;;;;;;;3.72;2.25;;;49.10;27.60;;;;;;5084103;28;20074;-82
2022/07/24 09:07:07;;;;;;;4.93;2.40;;;49.30;27.60;;;;;;5090902;28;20103;-80
2022/07/24 09:09:33;;;;;;;4.30;2.30;;;48.90;27.50;;;;;;5086657;28;20024;-81
2022/07/24 09:12:06;;;;;;;2.38;2.17;;;47.90;27.80;;;;;;5088242;28;20385;-81
2022/07/24 09:14:37;;;;;;;4.95;2.90;;;47.60;28.20;;;;;;5089762;28;20051;-80
2022/07/24 09:17:09;;;;;;;3.15;1.98;;;48.40;27.90;;;;;;5092704;28;20035;-81
2022/07/24 09:19:57;;;;;;;3.72;2.40;;;49.10;27.70;;;;;;5093982;28;20020;-83
2022/07/24 09:22:40;;;;;;;2.72;2.33;;;49.30;27.00;;;;;;5088085;28;20024;-84
2022/07/24 09:25:18;;;;;;;3.35;2.60;;;47.00;27.30;;;;;;5088042;28;20047;-86
2022/07/24 09:27:59;;;;;;;3.13;2.50;;;45.90;28.30;;;;;;5088315;28;20024;-86
2022/07/24 09:30:45;;;;;;;3.80;2.33;;;46.00;28.60;;;;;;5073619;28;20027;-86
2022/07/24 09:33:11;;;;;;;4.55;2.13;;;46.30;28.80;;;;;;5085468;28;20024;-85
2022/07/24 09:35:39;;;;;;;3.47;2.50;;;45.80;28.50;;;;;;5090116;28;20036;-84
2022/07/24 09:38:14;;;;;;;4.60;2.58;;;44.00;28.90;;;;;;5091413;28;20028;-85
2022/07/24 09:40:50;;;;;;;3.60;2.97;;;39.60;31.70;;;;;;5075572;28;20027;-85
2022/07/24 09:43:28;;;;;;;3.30;2.97;;;39.50;32.30;;;;;;5092022;28;20492;-93
2022/07/24 09:46:06;;;;;;;7.03;2.90;;;41.00;32.30;;;;;;5091367;28;20425;-88
2022/07/24 09:48:57;;;;;;;3.83;3.22;;;43.00;30.90;;;;;;5076869;28;20633;-87
2022/07/24 09:51:24;;;;;;;6.20;2.90;;;44.00;30.30;;;;;;5088491;28;20024;-84
2022/07/24 09:53:58;;;;;;;4.43;2.60;;;44.60;29.60;;;;;;5090999;28;20028;-83
2022/07/24 09:56:25;;;;;;;3.20;2.88;;;44.00;29.20;;;;;;5090217;28;20024;-84
2022/07/24 09:58:53;;;;;;;4.00;2.28;;;40.90;29.60;;;;;;5093539;28;20028;-89
2022/07/24 10:01:22;;;;;;;4.53;2.67;;;40.10;31.40;;;;;;5087732;28;20031;-86
2022/07/24 10:03:50;;;;;;;3.40;2.78;;;40.60;32.50;;;;;;5091931;28;20103;-85
2022/07/24 10:06:18;;;;;;;5.18;2.45;;;41.40;31.90;;;;;;5090281;28;20016;-85
2022/07/24 10:08:46;;;;;;;3.63;2.50;;;42.70;31.00;;;;;;5071358;28;20032;-83
2022/07/24 10:11:16;;;;;;;4.93;2.67;;;43.00;30.30;;;;;;5077723;28;20028;-83
2022/07/24 10:13:42;;;;;;;5.13;2.85;;;43.50;30.00;;;;;;5090795;28;20094;-84
2022/07/24 10:16:11;;;;;;;7.35;3.95;;;44.10;30.00;;;;;;5080959;28;20413;-83
2022/07/24 10:18:52;;;;;;;4.88;3.08;;;43.70;29.90;;;;;;5077666;28;20024;-84
2022/07/24 10:21:24;;;;;;;4.95;2.70;;;43.20;29.90;;;;;;5092752;28;20027;-85
2022/07/24 10:23:53;;;;;;;3.05;2.72;;;43.20;30.10;;;;;;5087676;28;20374;-83
2022/07/24 10:26:29;;;;;;;3.13;2.60;;;43.50;30.00;;;;;;5079860;28;20024;-86
2022/07/24 10:29:06;;;;;;;2.88;2.50;;;44.00;29.70;;;;;;5094707;28;20058;-85
2022/07/24 10:31:32;;;;;;;4.00;2.72;;;43.10;30.10;;;;;;5094840;28;20030;-85
2022/07/24 10:34:01;;;;;;;4.95;2.33;;;42.40;30.30;;;;;;5075889;28;20464;-82
2022/07/24 10:36:32;;;;;;;5.10;2.85;;;38.60;32.60;;;;;;5094150;28;20028;-85
2022/07/24 10:39:09;;;;;;;3.35;2.63;;;37.80;32.60;;;;;;5096291;28;20020;-82
2022/07/24 10:41:35;;;;;;;4.35;3.47;;;37.10;35.00;;;;;;5094430;28;20028;-86
2022/07/24 10:44:16;;;;;;;6.57;3.33;;;36.20;36.70;;;;;;5095515;28;20481;-85
2022/07/24 10:47:06;;;;;;;3.92;3.58;;;35.70;37.00;;;;;;5096122;28;20052;-87
2022/07/24 10:49:50;;;;;;;4.03;3.63;;;35.10;36.70;;;;;;5099528;28;20066;-83
2022/07/24 10:52:24;;;;;;;3.72;3.42;;;34.60;38.20;;;;;;5099029;28;20024;-81
2022/07/24 10:55:24;;;;;;;6.30;5.20;;;34.30;38.80;;;;;;5084875;28;20126;-83
2022/07/24 10:57:53;;;;;;;6.63;3.90;;;;;;;;;;5085435;28;20024;-83
2022/07/24 11:00:23;;;;;;;6.88;3.92;;;33.80;38.50;;;;;;5088373;28;20134;-81
2022/07/24 11:03:05;;;;;;;3.92;3.60;;;33.10;38.70;;;;;;5071318;28;20024;-82
2022/07/24 11:05:38;;;;;;;7.03;4.18;;;33.00;40.10;;;;;;5066582;28;20047;-82
2022/07/24 11:08:32;;;;;;;4.05;3.65;;;32.80;41.60;;;;;;5071288;28;20022;-83
2022/07/24 11:11:15;;;;;;;4.25;3.95;;;32.50;41.00;;;;;;5080620;28;20047;-83
2022/07/24 11:13:43;;;;;;;7.55;3.97;;;32.20;42.20;;;;;;5083927;28;20083;-82
2022/07/24 11:16:12;;;;;;;3.63;3.00;;;;;;;;;;5093394;28;20032;-84
2022/07/24 11:18:39;;;;;;;5.20;3.63;;;;;;;;;;5090153;28;20027;-83
2022/07/24 11:21:05;;;;;;;5.88;3.83;;;;;;;;;;5096331;28;20024;-84
2022/07/24 11:23:31;;;;;;;4.37;3.93;;;31.80;42.70;;;;;;5088522;28;20075;-83
2022/07/24 11:26:31;;;;;;;5.03;3.65;;;31.30;42.30;;;;;;5074712;28;20111;-83
2022/07/24 11:29:26;;;;;;;4.82;3.45;;;31.20;43.00;;;;;;5074782;28;20063;-84
2022/07/24 11:32:07;;;;;;;5.30;4.23;;;31.40;43.50;;;;;;5071466;28;20031;-84
2022/07/24 11:34:35;;;;;;;4.45;3.95;;;31.40;43.30;;;;;;5099597;28;20103;-83
2022/07/24 11:37:02;;;;;;;6.25;4.15;;;31.20;43.00;;;;;;5091316;28;20028;-83
2022/07/24 11:39:33;;;;;;;4.38;3.38;;;31.10;43.50;;;;;;5095084;28;20030;-84
2022/07/24 11:42:07;;;;;;;4.05;3.65;;;30.90;43.00;;;;;;5095470;28;20115;-90
2022/07/24 11:44:45;;;;;;;4.40;4.00;;;30.80;43.30;;;;;;5089833;28;20052;-80
2022/07/24 11:47:20;;;;;;;8.90;4.18;;;30.80;44.30;;;;;;5074594;28;20020;-85
2022/07/24 11:49:47;;;;;;;3.67;3.38;;;30.90;44.20;;;;;;5087099;28;20020;-85
2022/07/24 11:52:18;;;;;;;4.40;3.92;;;30.90;43.30;;;;;;5091430;28;20579;-84
2022/07/24 11:54:45;;;;;;;7.00;4.32;;;30.70;43.60;;;;;;5083136;28;20047;-83
2022/07/24 11:57:26;;;;;;;4.47;3.55;;;30.70;44.70;;;;;;5078712;28;20115;-82
2022/07/24 11:59:53;;;;;;;7.38;4.18;;;30.80;44.00;;;;;;5071187;28;20031;-82
2022/07/24 12:02:21;;;;;;;5.05;4.20;;;30.70;44.20;;;;;;5086495;28;20016;-85
2022/07/24 12:04:48;;;;;;;5.93;4.05;;;30.60;44.40;;;;;;5073341;28;20530;-84
2022/07/24 12:07:24;;;;;;;5.35;4.15;;;30.40;45.20;;;;;;5081559;28;20071;-84
2022/07/24 12:09:54;;;;;;;5.07;4.57;;;30.40;45.40;;;;;;5075868;28;20482;-83
2022/07/24 12:12:28;;;;;;;7.50;4.78;;;30.30;46.00;;;;;;5086447;28;20052;-85
2022/07/24 12:15:09;;;;;;;5.63;4.25;;;30.50;45.70;;;;;;5083929;28;20024;-84
2022/07/24 12:17:56;;;;;;;4.43;4.03;;;30.40;45.20;;;;;;5090085;28;20024;-83
2022/07/24 12:20:24;;;;;;;5.57;4.50;;;30.30;46.20;;;;;;5076252;28;20038;-82
2022/07/24 12:22:50;;;;;;;5.78;5.28;;;30.30;46.20;;;;;;5074537;28;20481;-82
2022/07/24 12:25:16;;;;;;;4.40;3.87;;;30.30;46.30;;;;;;5078914;28;20084;-83
2022/07/24 12:27:52;;;;;;;6.80;4.63;;;30.40;45.70;;;;;;5098039;28;20034;-85
2022/07/24 12:30:31;;;;;;;6.32;3.78;;;30.20;45.70;;;;;;5083481;28;20100;-83
2022/07/24 12:33:04;;;;;;;5.75;4.57;;;30.10;45.20;;;;;;5077019;28;20031;-83
2022/07/24 12:35:52;;;;;;;8.35;3.83;;;29.90;46.50;;;;;;5075647;28;20053;-86
2022/07/24 12:38:33;;;;;;;6.30;4.00;;;29.90;46.30;;;;;;5075621;28;20036;-85
2022/07/24 12:41:03;;;;;;;4.47;4.03;;;29.90;46.30;;;;;;5078826;28;20031;-88
2022/07/24 12:43:29;;;;;;;5.07;4.07;;;29.90;46.60;;;;;;5092745;28;20108;-86
2022/07/24 12:46:09;;;;;;;5.22;3.97;;;30.00;45.90;;;;;;5089206;28;20103;-83
2022/07/24 12:48:35;;;;;;;4.35;3.72;;;30.00;46.50;;;;;;5074280;28;20029;-82
2022/07/24 12:51:12;;;;;;;4.53;4.13;;;29.90;45.50;;;;;;5087855;28;20017;-86